createdAt,value
2022-12-08T00:02:49.556Z,63.17
2022-12-08T00:06:10.398Z,67.28
2022-12-08T00:09:39.472Z,48.78
2022-12-08T00:12:41.844Z,51.80
2022-12-08T00:15:43.967Z,42.97
2022-12-08T00:18:46.488Z,44.85
2022-12-08T00:21:48.620Z,43.40
2022-12-08T00:24:50.702Z,49.10
2022-12-08T00:27:52.797Z,42.08
2022-12-08T00:30:55.142Z,45.13
2022-12-08T00:33:58.365Z,44.80
2022-12-08T00:37:00.474Z,47.00
2022-12-08T00:40:02.933Z,39.65
2022-12-08T00:43:05.268Z,40.75
2022-12-08T00:46:07.444Z,37.40
2022-12-08T00:49:09.617Z,41.13
2022-12-08T00:52:13.004Z,42.65
2022-12-08T00:55:15.130Z,45.60
2022-12-08T00:58:17.105Z,48.45
2022-12-08T01:01:19.222Z,40.70
2022-12-08T01:04:22.188Z,38.05
2022-12-08T01:07:24.254Z,38.60
2022-12-08T01:10:26.594Z,43.90
2022-12-08T01:13:28.742Z,35.58
2022-12-08T01:16:33.710Z,35.25
2022-12-08T01:19:35.732Z,36.00
2022-12-08T01:22:37.709Z,34.03
2022-12-08T01:25:39.772Z,37.03
2022-12-08T01:28:42.742Z,34.10
2022-12-08T01:31:45.017Z,33.55
2022-12-08T01:34:47.071Z,31.60
2022-12-08T01:37:50.467Z,32.10
2022-12-08T01:40:52.520Z,31.08
2022-12-08T01:44:01.789Z,35.65
2022-12-08T01:47:04.193Z,35.35
2022-12-08T01:50:08.675Z,35.72
2022-12-08T01:53:24.799Z,35.63
2022-12-08T01:56:50.150Z,38.40
2022-12-08T02:00:02.727Z,35.03
2022-12-08T02:03:19.001Z,42.55
2022-12-08T02:06:21.732Z,37.90
2022-12-08T02:09:24.821Z,52.50
2022-12-08T02:12:26.963Z,42.45
2022-12-08T02:15:32.035Z,52.63
2022-12-08T02:19:29.713Z,43.75
2022-12-08T02:22:34.683Z,45.40
2022-12-08T02:25:57.889Z,41.13
2022-12-08T02:29:24.672Z,42.38
2022-12-08T02:32:41.578Z,41.13
2022-12-08T02:35:43.566Z,43.20
2022-12-08T02:38:56.285Z,38.65
2022-12-08T02:42:16.889Z,34.25
2022-12-08T02:45:36.203Z,35.25
2022-12-08T02:48:38.593Z,34.78
2022-12-08T02:51:40.845Z,34.13
2022-12-08T02:54:47.350Z,33.17
2022-12-08T02:58:04.411Z,32.45
2022-12-08T03:01:28.142Z,29.70
2022-12-08T03:04:56.301Z,30.58
2022-12-08T03:08:08.228Z,30.10
2022-12-08T03:11:27.359Z,28.88
2022-12-08T03:14:30.544Z,31.95
2022-12-08T03:17:33.288Z,29.83
2022-12-08T03:20:36.088Z,30.48
2022-12-08T03:23:39.524Z,31.83
2022-12-08T03:26:50.475Z,30.45
2022-12-08T03:29:55.709Z,30.25
2022-12-08T03:33:18.020Z,33.85
2022-12-08T03:36:20.889Z,33.58
2022-12-08T03:39:23.465Z,35.50
2022-12-08T03:42:25.489Z,31.92
2022-12-08T03:45:27.676Z,29.63
2022-12-08T03:48:29.821Z,32.15
2022-12-08T03:51:31.954Z,37.30
2022-12-08T03:54:34.026Z,38.67
2022-12-08T03:57:36.366Z,45.67
2022-12-08T04:00:38.463Z,46.88
2022-12-08T04:03:40.508Z,41.22
2022-12-08T04:06:42.553Z,36.30
2022-12-08T04:09:45.540Z,35.92
2022-12-08T04:12:47.619Z,32.55
2022-12-08T04:15:49.781Z,36.83
2022-12-08T04:18:51.959Z,30.33
2022-12-08T04:21:53.968Z,33.72
2022-12-08T04:24:55.960Z,36.25
2022-12-08T04:27:57.982Z,35.30
2022-12-08T04:31:00.292Z,30.42
2022-12-08T04:34:02.297Z,33.42
2022-12-08T04:37:04.323Z,32.97
2022-12-08T04:40:07.424Z,39.25
2022-12-08T04:43:09.706Z,44.67
2022-12-08T04:46:12.013Z,34.80
2022-12-08T04:49:14.102Z,38.45
2022-12-08T04:52:16.158Z,34.50
2022-12-08T04:55:18.343Z,34.30
2022-12-08T04:58:20.642Z,34.75
2022-12-08T05:01:22.739Z,35.85
2022-12-08T05:04:24.824Z,33.72
2022-12-08T05:07:26.911Z,35.25
2022-12-08T05:10:28.989Z,35.92
2022-12-08T05:13:31.335Z,38.45
2022-12-08T05:16:33.363Z,43.33
2022-12-08T05:19:35.546Z,40.50
2022-12-08T05:22:37.621Z,38.85
2022-12-08T05:25:39.701Z,42.13
2022-12-08T05:28:43.342Z,40.35
2022-12-08T05:31:46.141Z,40.92
2022-12-08T05:34:48.330Z,44.55
2022-12-08T05:37:50.403Z,46.22
2022-12-08T05:40:52.493Z,46.28
2022-12-08T05:43:54.552Z,40.78
2022-12-08T05:46:56.683Z,46.03
2022-12-08T05:49:58.787Z,44.63
2022-12-08T05:53:00.792Z,41.15
2022-12-08T05:56:02.829Z,47.90
2022-12-08T05:59:08.927Z,47.97
2022-12-08T06:02:11.114Z,51.30
2022-12-08T06:05:13.211Z,52.60
2022-12-08T06:08:15.447Z,46.33
2022-12-08T06:11:22.872Z,52.83
2022-12-08T06:14:24.942Z,47.13
2022-12-08T06:17:27.066Z,45.67
2022-12-08T06:20:29.296Z,48.20
2022-12-08T06:23:31.520Z,46.30
2022-12-08T06:26:33.696Z,52.42
2022-12-08T06:29:35.907Z,46.20
2022-12-08T06:32:38.356Z,53.42
2022-12-08T06:35:40.432Z,49.30
2022-12-08T06:38:44.060Z,42.33
2022-12-08T06:42:04.851Z,44.80
2022-12-08T06:45:07.426Z,44.15
2022-12-08T06:48:09.459Z,52.60
2022-12-08T06:51:20.933Z,43.38
2022-12-08T06:54:23.108Z,42.58
2022-12-08T06:57:25.794Z,42.65
2022-12-08T07:00:27.962Z,43.40
2022-12-08T07:03:30.063Z,51.65
2022-12-08T07:06:32.733Z,49.90
2022-12-08T07:09:34.771Z,50.55
2022-12-08T07:12:36.843Z,57.78
2022-12-08T07:15:39.032Z,55.03
2022-12-08T07:18:42.994Z,48.65
2022-12-08T07:21:45.112Z,49.92
2022-12-08T07:24:47.165Z,54.35
2022-12-08T07:27:51.519Z,50.53
2022-12-08T07:30:53.658Z,52.42
2022-12-08T07:33:57.156Z,97.40
2022-12-08T07:36:59.268Z,70.18
2022-12-08T07:40:01.600Z,78.90
2022-12-08T07:43:03.935Z,62.00
2022-12-08T07:46:06.325Z,56.75
2022-12-08T07:49:08.504Z,55.42
2022-12-08T07:52:10.495Z,53.28
2022-12-08T07:55:12.586Z,51.97
2022-12-08T07:58:14.680Z,51.45
2022-12-08T08:01:28.513Z,48.10
2022-12-08T08:04:30.810Z,47.83
2022-12-08T08:07:33.016Z,46.47
2022-12-08T08:10:35.148Z,48.42
2022-12-08T08:13:37.790Z,44.58
2022-12-08T08:16:46.360Z,44.38
2022-12-08T08:19:48.540Z,45.03
2022-12-08T08:22:51.599Z,46.90
2022-12-08T08:25:54.016Z,42.15
2022-12-08T08:28:56.352Z,43.72
2022-12-08T08:31:58.433Z,38.42
2022-12-08T08:35:00.669Z,41.47
2022-12-08T08:38:02.988Z,42.97
2022-12-08T08:41:09.928Z,42.13
2022-12-08T08:44:14.822Z,40.97
2022-12-08T08:47:17.011Z,42.65
2022-12-08T08:50:19.108Z,43.13
2022-12-08T08:53:21.822Z,38.13
2022-12-08T08:56:24.354Z,39.63
2022-12-08T08:59:27.203Z,36.70
2022-12-08T09:02:29.411Z,36.58
2022-12-08T09:05:31.581Z,39.00
2022-12-08T09:08:33.829Z,37.00
2022-12-08T09:11:36.230Z,37.65
2022-12-08T09:14:38.390Z,37.88
2022-12-08T09:17:40.491Z,40.70
2022-12-08T09:20:42.895Z,37.92
2022-12-08T09:23:45.293Z,37.38
2022-12-08T09:26:47.341Z,39.97
2022-12-08T09:29:51.114Z,35.85
2022-12-08T09:32:53.313Z,37.95
2022-12-08T09:35:55.374Z,34.05
2022-12-08T09:38:58.163Z,38.90
2022-12-08T09:42:03.411Z,35.67
2022-12-08T09:45:09.139Z,42.58
2022-12-08T09:48:13.545Z,40.40
2022-12-08T09:51:16.211Z,38.97
2022-12-08T09:54:30.056Z,38.28
2022-12-08T09:57:32.167Z,39.67
2022-12-08T10:00:34.758Z,41.67
2022-12-08T10:03:37.143Z,40.60
2022-12-08T10:06:59.938Z,41.65
2022-12-08T10:10:33.186Z,35.92
2022-12-08T10:13:46.851Z,35.72
2022-12-08T10:16:52.056Z,37.40
2022-12-08T10:20:18.846Z,38.45
2022-12-08T10:23:36.720Z,42.60
2022-12-08T10:26:39.751Z,39.63
2022-12-08T10:29:41.761Z,39.67
2022-12-08T10:32:46.925Z,39.97
2022-12-08T10:35:58.508Z,37.90
2022-12-08T10:39:01.621Z,36.92
2022-12-08T10:42:19.762Z,34.90
2022-12-08T10:45:41.706Z,31.67
2022-12-08T10:48:52.940Z,31.13
2022-12-08T10:51:55.379Z,33.45
2022-12-08T10:55:00.759Z,35.60
2022-12-08T10:58:02.806Z,37.10
2022-12-08T11:01:33.299Z,29.17
2022-12-08T11:04:38.184Z,31.05
2022-12-08T11:07:47.814Z,27.52
2022-12-08T11:10:49.968Z,26.17
2022-12-08T11:13:52.038Z,35.15
2022-12-08T11:17:21.889Z,42.70
2022-12-08T11:20:24.142Z,28.85
2022-12-08T11:23:30.238Z,27.55
2022-12-08T11:26:35.718Z,29.10
2022-12-08T11:29:38.061Z,28.35
2022-12-08T11:32:45.004Z,27.00
2022-12-08T11:36:03.493Z,26.15
2022-12-08T11:39:06.208Z,28.05
2022-12-08T11:42:13.891Z,27.88
2022-12-08T11:45:24.538Z,24.40
2022-12-08T11:48:44.937Z,30.40
2022-12-08T11:51:57.655Z,23.95
2022-12-08T11:55:37.398Z,25.42
2022-12-08T11:58:46.447Z,26.40
2022-12-08T12:01:48.554Z,25.52
2022-12-08T12:05:05.166Z,26.67
2022-12-08T12:08:42.290Z,29.13
2022-12-08T12:12:15.764Z,27.90
2022-12-08T12:15:41.936Z,29.55
2022-12-08T12:18:46.678Z,30.67
2022-12-08T12:21:56.785Z,29.38
2022-12-08T12:24:59.137Z,28.92
2022-12-08T12:28:05.563Z,27.05
2022-12-08T12:31:12.513Z,32.67
2022-12-08T12:34:23.699Z,31.23
2022-12-08T12:37:44.220Z,29.25
2022-12-08T12:40:46.500Z,33.33
2022-12-08T12:44:22.822Z,34.45
2022-12-08T12:47:48.570Z,31.27
2022-12-08T12:50:55.257Z,34.13
2022-12-08T12:54:24.331Z,33.47
2022-12-08T12:57:37.130Z,34.28
2022-12-08T13:00:39.265Z,30.55
2022-12-08T13:03:48.771Z,32.20
2022-12-08T13:06:51.560Z,36.60
2022-12-08T13:10:11.050Z,34.25
2022-12-08T13:13:15.020Z,32.30
2022-12-08T13:16:22.864Z,30.98
2022-12-08T13:19:25.776Z,38.72
2022-12-08T13:23:11.000Z,39.38
2022-12-08T13:26:20.817Z,41.67
2022-12-08T13:32:30.707Z,34.33
2022-12-08T13:35:44.460Z,32.65
2022-12-08T13:38:47.476Z,34.20
2022-12-08T13:41:58.981Z,31.73
2022-12-08T13:45:30.130Z,35.22
2022-12-08T13:59:21.250Z,30.38
2022-12-08T14:02:34.836Z,31.65
2022-12-08T14:06:10.945Z,33.10
2022-12-08T14:09:13.419Z,31.88
2022-12-08T14:12:15.451Z,31.20
2022-12-08T14:15:23.303Z,28.25
2022-12-08T14:18:34.564Z,31.33
2022-12-08T14:21:36.929Z,41.58
2022-12-08T14:24:39.448Z,37.65
2022-12-08T14:27:41.713Z,34.22
2022-12-08T14:30:44.037Z,33.15
2022-12-08T14:33:49.363Z,34.42
2022-12-08T14:36:55.333Z,37.10
2022-12-08T14:40:01.906Z,35.22
2022-12-08T14:43:10.209Z,39.95
2022-12-08T14:46:21.267Z,41.28
2022-12-08T14:49:40.055Z,55.33
2022-12-08T14:52:44.486Z,63.38
2022-12-08T14:55:48.357Z,38.85
2022-12-08T14:59:06.386Z,35.67
2022-12-08T15:02:14.205Z,39.00
2022-12-08T15:05:20.308Z,35.50
2022-12-08T15:08:22.697Z,36.83
2022-12-08T15:11:24.756Z,33.92
2022-12-08T15:14:29.434Z,33.65
2022-12-08T15:17:41.733Z,34.78
2022-12-08T15:20:48.359Z,34.03
2022-12-08T15:23:50.792Z,38.78
2022-12-08T15:26:53.610Z,41.35
2022-12-08T15:29:55.840Z,41.15
2022-12-08T15:32:57.854Z,35.53
2022-12-08T15:35:59.963Z,38.45
2022-12-08T15:39:02.075Z,44.67
2022-12-08T15:42:10.071Z,47.53
2022-12-08T15:45:14.536Z,37.70
2022-12-08T15:48:25.775Z,36.10
2022-12-08T15:51:27.848Z,39.75
2022-12-08T15:54:29.993Z,38.13
2022-12-08T16:00:56.048Z,42.58
2022-12-08T16:07:27.719Z,39.47
2022-12-08T16:10:59.002Z,41.03
2022-12-08T16:13:58.344Z,39.88
2022-12-08T16:17:05.242Z,40.22
2022-12-08T16:20:17.020Z,44.90
2022-12-08T16:23:34.637Z,42.67
2022-12-08T16:30:07.467Z,41.50
2022-12-08T16:33:11.867Z,44.28
2022-12-08T16:36:13.911Z,44.88
2022-12-08T16:39:16.567Z,44.00
2022-12-08T16:42:42.016Z,43.88
2022-12-08T16:45:45.198Z,41.22
2022-12-08T16:48:47.499Z,45.10
2022-12-08T16:51:49.657Z,46.38
2022-12-08T16:54:52.087Z,42.55
2022-12-08T16:57:54.439Z,39.58
2022-12-08T17:00:57.112Z,50.78
2022-12-08T17:04:31.007Z,44.15
2022-12-08T17:07:21.522Z,50.38
2022-12-08T17:10:27.115Z,52.28
2022-12-08T17:13:29.456Z,54.90
2022-12-08T17:16:32.044Z,50.17
2022-12-08T17:19:34.780Z,48.90
2022-12-08T17:22:37.325Z,41.58
2022-12-08T17:25:39.423Z,49.88
2022-12-08T17:29:00.005Z,46.40
2022-12-08T17:32:02.786Z,52.60
2022-12-08T17:35:05.826Z,61.15
2022-12-08T17:38:08.335Z,58.40
2022-12-08T17:41:11.743Z,54.70
2022-12-08T17:44:17.469Z,62.20
2022-12-08T17:47:20.199Z,59.67
2022-12-08T17:50:22.401Z,55.58
2022-12-08T17:53:24.862Z,70.18
2022-12-08T17:56:27.064Z,65.53
2022-12-08T17:59:30.349Z,63.72
2022-12-08T18:02:33.632Z,66.03
2022-12-08T18:05:36.038Z,67.45
2022-12-08T18:08:39.574Z,65.07
2022-12-08T18:11:42.823Z,61.50
2022-12-08T18:14:46.606Z,66.78
2022-12-08T18:17:48.994Z,65.50
2022-12-08T18:20:52.346Z,70.45
2022-12-08T18:23:54.633Z,67.68
2022-12-08T18:26:59.159Z,65.25
2022-12-08T18:30:03.245Z,60.80
2022-12-08T18:33:07.303Z,65.55
2022-12-08T18:36:16.611Z,70.05
2022-12-08T18:39:33.252Z,65.35
2022-12-08T18:42:36.089Z,63.13
2022-12-08T18:45:39.813Z,64.15
2022-12-08T18:48:47.499Z,61.63
2022-12-08T18:51:50.682Z,64.45
2022-12-08T18:55:08.421Z,62.97
2022-12-08T18:58:15.287Z,66.97
2022-12-08T19:01:18.146Z,63.60
2022-12-08T19:04:31.873Z,63.65
2022-12-08T19:07:36.510Z,69.57
2022-12-08T19:10:40.675Z,62.30
2022-12-08T19:13:43.621Z,57.47
2022-12-08T19:16:46.955Z,57.17
2022-12-08T19:19:49.709Z,64.18
2022-12-08T19:22:52.887Z,71.50
2022-12-08T19:25:55.776Z,61.10
2022-12-08T19:28:58.463Z,61.35
2022-12-08T19:32:05.490Z,63.05
2022-12-08T19:35:08.777Z,67.65
2022-12-08T19:38:12.518Z,67.90
2022-12-08T19:41:33.066Z,67.75
2022-12-08T19:44:55.258Z,69.03
2022-12-08T19:47:58.224Z,102.07
2022-12-08T19:51:01.172Z,137.55
2022-12-08T19:54:04.273Z,85.18
2022-12-08T19:57:07.137Z,74.95
2022-12-08T20:00:11.522Z,78.25
2022-12-08T20:03:18.681Z,77.88
2022-12-08T20:06:22.044Z,65.90
2022-12-08T20:09:24.587Z,64.93
2022-12-08T20:12:26.931Z,73.50
2022-12-08T20:15:29.643Z,75.82
2022-12-08T20:18:36.574Z,60.97
2022-12-08T20:21:41.322Z,59.03
2022-12-08T20:24:44.172Z,54.22
2022-12-08T20:27:47.303Z,60.03
2022-12-08T20:30:50.434Z,62.40
2022-12-08T20:33:53.934Z,51.45
2022-12-08T20:36:56.767Z,55.90
2022-12-08T20:39:59.967Z,53.17
2022-12-08T20:43:03.145Z,64.18
2022-12-08T20:46:10.717Z,72.57
2022-12-08T20:49:14.021Z,69.95
2022-12-08T20:52:16.294Z,81.65
2022-12-08T20:55:18.598Z,58.63
2022-12-08T20:58:21.205Z,60.42
2022-12-08T21:01:25.218Z,61.70
2022-12-08T21:04:28.147Z,67.57
2022-12-08T21:07:30.818Z,65.97
2022-12-08T21:10:42.167Z,61.40
2022-12-08T21:13:46.841Z,70.95
2022-12-08T21:16:51.185Z,75.22
2022-12-08T21:19:53.717Z,123.25
2022-12-08T21:22:56.048Z,76.80
2022-12-08T21:25:58.296Z,103.55
2022-12-08T21:29:00.607Z,72.85
2022-12-08T21:32:02.884Z,83.15
2022-12-08T21:35:06.272Z,119.40
2022-12-08T21:38:08.323Z,124.20
2022-12-08T21:41:13.597Z,143.07
2022-12-08T21:44:18.734Z,127.32
2022-12-08T21:47:21.104Z,70.30
2022-12-08T21:50:23.431Z,63.55
2022-12-08T21:53:26.517Z,81.70
2022-12-08T21:56:28.580Z,77.60
2022-12-08T21:59:30.940Z,68.93
2022-12-08T22:02:33.150Z,70.68
2022-12-08T22:05:36.195Z,70.88
2022-12-08T22:08:39.249Z,58.08
2022-12-08T22:11:43.182Z,58.90
2022-12-08T22:14:45.396Z,61.35
2022-12-08T22:17:47.659Z,58.25
2022-12-08T22:20:50.036Z,64.97
2022-12-08T22:23:52.340Z,59.13
2022-12-08T22:26:54.465Z,53.95
2022-12-08T22:29:56.801Z,54.20
2022-12-08T22:32:58.928Z,55.50
2022-12-08T22:36:09.814Z,53.58
2022-12-08T22:39:12.950Z,50.88
2022-12-08T22:42:15.263Z,56.08
2022-12-08T22:45:17.572Z,51.65
2022-12-08T22:48:19.702Z,50.05
2022-12-08T22:51:22.057Z,62.53
2022-12-08T22:54:24.355Z,58.45
2022-12-08T22:57:27.866Z,51.38
2022-12-08T23:00:30.038Z,50.65
2022-12-08T23:03:33.510Z,65.05
2022-12-08T23:06:35.838Z,61.63
2022-12-08T23:09:38.162Z,67.28
2022-12-08T23:12:40.325Z,56.25
2022-12-08T23:15:42.611Z,59.70
2022-12-08T23:18:46.366Z,59.42
2022-12-08T23:21:48.559Z,65.68
2022-12-08T23:24:50.717Z,52.83
2022-12-08T23:27:52.935Z,55.80
2022-12-08T23:30:55.219Z,52.58
2022-12-08T23:33:57.395Z,59.13
2022-12-08T23:36:59.497Z,58.08
2022-12-08T23:40:02.056Z,49.20
2022-12-08T23:43:06.244Z,54.90
2022-12-08T23:46:08.513Z,54.78
2022-12-08T23:49:11.019Z,47.90
2022-12-08T23:52:13.966Z,49.25
2022-12-08T23:55:16.135Z,54.90
2022-12-08T23:58:18.264Z,46.30
